sensor_id;sensor_type;location;lat;lon;timestamp;pressure;altitude;pressure_sealevel;temperature;humidity
30081;BME280;16902;50.816;12.828;2023-02-14T00:03:59;99769.31;;;2.31;100.00
30081;BME280;16902;50.816;12.828;2023-02-14T00:09:02;99763.88;;;2.37;100.00
30081;BME280;16902;50.816;12.828;2023-02-14T00:14:04;99767.78;;;2.44;100.00
30081;BME280;16902;50.816;12.828;2023-02-14T00:19:25;99755.91;;;2.42;100.00
30081;BME280;16902;50.816;12.828;2023-02-14T00:24:27;99762.41;;;2.49;100.00
30081;BME280;16902;50.816;12.828;2023-02-14T00:29:30;99759.47;;;2.56;100.00
30081;BME280;16902;50.816;12.828;2023-02-14T00:34:32;99753.63;;;2.53;100.00
30081;BME280;16902;50.816;12.828;2023-02-14T00:39:37;99747.13;;;2.79;100.00
30081;BME280;16902;50.816;12.828;2023-02-14T00:44:39;99742.53;;;2.68;100.00
30081;BME280;16902;50.816;12.828;2023-02-14T00:49:41;99745.59;;;2.59;100.00
30081;BME280;16902;50.816;12.828;2023-02-14T00:54:43;99737.78;;;2.61;100.00
30081;BME280;16902;50.816;12.828;2023-02-14T00:59:47;99734.88;;;2.51;100.00
30081;BME280;16902;50.816;12.828;2023-02-14T01:04:49;99730.97;;;2.44;100.00
30081;BME280;16902;50.816;12.828;2023-02-14T01:09:51;99729.22;;;2.44;100.00
30081;BME280;16902;50.816;12.828;2023-02-14T01:14:53;99722.25;;;2.46;100.00
30081;BME280;16902;50.816;12.828;2023-02-14T01:19:55;99719.06;;;2.58;100.00
30081;BME280;16902;50.816;12.828;2023-02-14T01:24:57;99718.63;;;2.50;100.00
30081;BME280;16902;50.816;12.828;2023-02-14T01:29:59;99708.53;;;2.47;100.00
30081;BME280;16902;50.816;12.828;2023-02-14T01:35:01;99708.88;;;2.57;100.00
30081;BME280;16902;50.816;12.828;2023-02-14T01:40:04;99717.41;;;2.57;100.00
30081;BME280;16902;50.816;12.828;2023-02-14T01:45:21;99717.47;;;2.56;100.00
30081;BME280;16902;50.816;12.828;2023-02-14T01:50:30;99718.31;;;2.56;100.00
30081;BME280;16902;50.816;12.828;2023-02-14T01:55:38;99715.22;;;2.50;100.00
30081;BME280;16902;50.816;12.828;2023-02-14T02:00:43;99716.41;;;2.60;100.00
30081;BME280;16902;50.816;12.828;2023-02-14T02:06:08;99711.97;;;2.46;100.00
30081;BME280;16902;50.816;12.828;2023-02-14T02:11:11;99703.63;;;2.43;100.00
30081;BME280;16902;50.816;12.828;2023-02-14T02:16:32;99723.03;;;2.48;100.00
30081;BME280;16902;50.816;12.828;2023-02-14T02:22:17;99707.03;;;2.43;100.00
30081;BME280;16902;50.816;12.828;2023-02-14T02:27:18;99695.81;;;2.44;100.00
30081;BME280;16902;50.816;12.828;2023-02-14T02:48:25;99683.06;;;2.58;100.00
30081;BME280;16902;50.816;12.828;2023-02-14T02:53:42;99677.69;;;2.63;100.00
30081;BME280;16902;50.816;12.828;2023-02-14T02:58:56;99676.41;;;2.70;100.00
30081;BME280;16902;50.816;12.828;2023-02-14T03:04:11;99670.53;;;2.68;100.00
30081;BME280;16902;50.816;12.828;2023-02-14T03:14:49;99675.84;;;2.65;100.00
30081;BME280;16902;50.816;12.828;2023-02-14T03:25:36;99676.16;;;2.75;100.00
30081;BME280;16902;50.816;12.828;2023-02-14T03:36:13;99674.19;;;2.64;100.00
30081;BME280;16902;50.816;12.828;2023-02-14T03:41:19;99673.84;;;2.70;100.00
30081;BME280;16902;50.816;12.828;2023-02-14T03:46:31;99671.03;;;2.75;100.00
30081;BME280;16902;50.816;12.828;2023-02-14T03:51:35;99669.63;;;2.69;100.00
30081;BME280;16902;50.816;12.828;2023-02-14T04:01:55;99668.22;;;2.79;100.00
30081;BME280;16902;50.816;12.828;2023-02-14T04:07:15;99666.91;;;2.72;100.00
30081;BME280;16902;50.816;12.828;2023-02-14T04:12:19;99670.44;;;2.70;100.00
30081;BME280;16902;50.816;12.828;2023-02-14T04:17:36;99666.03;;;2.56;100.00
30081;BME280;16902;50.816;12.828;2023-02-14T04:22:56;99658.75;;;2.48;100.00
30081;BME280;16902;50.816;12.828;2023-02-14T04:27:58;99664.16;;;2.60;100.00
30081;BME280;16902;50.816;12.828;2023-02-14T04:33:00;99659.19;;;2.56;100.00
30081;BME280;16902;50.816;12.828;2023-02-14T04:38:03;99647.22;;;2.55;100.00
30081;BME280;16902;50.816;12.828;2023-02-14T04:43:05;99647.56;;;2.65;100.00
30081;BME280;16902;50.816;12.828;2023-02-14T04:48:08;99649.81;;;2.71;100.00
30081;BME280;16902;50.816;12.828;2023-02-14T04:53:10;99641.09;;;2.74;100.00
30081;BME280;16902;50.816;12.828;2023-02-14T04:58:12;99634.88;;;2.78;100.00
30081;BME280;16902;50.816;12.828;2023-02-14T05:03:14;99639.09;;;2.79;100.00
30081;BME280;16902;50.816;12.828;2023-02-14T05:08:16;99648.22;;;2.69;100.00
30081;BME280;16902;50.816;12.828;2023-02-14T05:13:18;99632.94;;;2.66;100.00
30081;BME280;16902;50.816;12.828;2023-02-14T05:18:20;99636.34;;;2.50;100.00
30081;BME280;16902;50.816;12.828;2023-02-14T05:23:22;99630.97;;;2.55;100.00
30081;BME280;16902;50.816;12.828;2023-02-14T05:28:24;99633.78;;;2.50;100.00
30081;BME280;16902;50.816;12.828;2023-02-14T05:33:26;99636.69;;;2.44;100.00
30081;BME280;16902;50.816;12.828;2023-02-14T05:38:28;99643.44;;;2.47;100.00
30081;BME280;16902;50.816;12.828;2023-02-14T05:43:30;99643.34;;;2.48;100.00
30081;BME280;16902;50.816;12.828;2023-02-14T05:48:32;99637.13;;;2.68;100.00
30081;BME280;16902;50.816;12.828;2023-02-14T05:53:35;99632.69;;;2.70;100.00
30081;BME280;16902;50.816;12.828;2023-02-14T05:58:36;99630.44;;;2.80;100.00
30081;BME280;16902;50.816;12.828;2023-02-14T06:03:38;99634.78;;;2.95;100.00
30081;BME280;16902;50.816;12.828;2023-02-14T06:08:40;99643.69;;;3.04;100.00
30081;BME280;16902;50.816;12.828;2023-02-14T06:13:42;99648.03;;;3.03;100.00
30081;BME280;16902;50.816;12.828;2023-02-14T06:18:44;99642.47;;;3.11;100.00
30081;BME280;16902;50.816;12.828;2023-02-14T06:23:45;99638.31;;;3.08;100.00
30081;BME280;16902;50.816;12.828;2023-02-14T06:28:55;99649.94;;;3.16;100.00
30081;BME280;16902;50.816;12.828;2023-02-14T06:33:57;99649.56;;;3.22;100.00
30081;BME280;16902;50.816;12.828;2023-02-14T06:38:59;99650.50;;;3.21;100.00
30081;BME280;16902;50.816;12.828;2023-02-14T06:44:01;99654.38;;;3.28;100.00
30081;BME280;16902;50.816;12.828;2023-02-14T06:49:03;99652.72;;;3.27;100.00
30081;BME280;16902;50.816;12.828;2023-02-14T06:54:05;99641.34;;;3.31;100.00
30081;BME280;16902;50.816;12.828;2023-02-14T06:59:07;99636.94;;;3.47;100.00
30081;BME280;16902;50.816;12.828;2023-02-14T07:04:09;99638.53;;;3.50;100.00
30081;BME280;16902;50.816;12.828;2023-02-14T07:09:11;99636.78;;;3.50;100.00
30081;BME280;16902;50.816;12.828;2023-02-14T07:14:15;99633.03;;;3.70;100.00
30081;BME280;16902;50.816;12.828;2023-02-14T07:19:16;99632.94;;;3.72;100.00
30081;BME280;16902;50.816;12.828;2023-02-14T07:24:18;99625.94;;;3.59;100.00
30081;BME280;16902;50.816;12.828;2023-02-14T07:29:20;99616.66;;;3.57;100.00
30081;BME280;16902;50.816;12.828;2023-02-14T07:34:22;99621.19;;;3.38;100.00
30081;BME280;16902;50.816;12.828;2023-02-14T07:39:24;99620.28;;;3.08;100.00
30081;BME280;16902;50.816;12.828;2023-02-14T07:44:26;99620.75;;;3.01;100.00
30081;BME280;16902;50.816;12.828;2023-02-14T07:49:28;99610.97;;;2.92;100.00
30081;BME280;16902;50.816;12.828;2023-02-14T07:54:30;99611.69;;;2.94;100.00
30081;BME280;16902;50.816;12.828;2023-02-14T07:59:32;99611.19;;;3.03;100.00
30081;BME280;16902;50.816;12.828;2023-02-14T08:04:34;99610.50;;;3.15;100.00
30081;BME280;16902;50.816;12.828;2023-02-14T08:09:36;99611.38;;;3.30;100.00
30081;BME280;16902;50.816;12.828;2023-02-14T08:14:37;99607.81;;;3.47;100.00
30081;BME280;16902;50.816;12.828;2023-02-14T08:19:39;99612.06;;;3.62;100.00
30081;BME280;16902;50.816;12.828;2023-02-14T08:24:41;99607.13;;;3.73;100.00
30081;BME280;16902;50.816;12.828;2023-02-14T08:29:43;99605.72;;;3.96;100.00
30081;BME280;16902;50.816;12.828;2023-02-14T08:34:46;99611.63;;;4.12;100.00
30081;BME280;16902;50.816;12.828;2023-02-14T08:39:48;99616.22;;;4.36;100.00
30081;BME280;16902;50.816;12.828;2023-02-14T08:44:50;99618.94;;;4.47;100.00
30081;BME280;16902;50.816;12.828;2023-02-14T08:49:51;99622.13;;;4.65;100.00
30081;BME280;16902;50.816;12.828;2023-02-14T08:54:53;99621.41;;;4.90;100.00
30081;BME280;16902;50.816;12.828;2023-02-14T08:59:55;99617.94;;;5.04;100.00
30081;BME280;16902;50.816;12.828;2023-02-14T09:04:57;99619.13;;;5.25;100.00
30081;BME280;16902;50.816;12.828;2023-02-14T09:09:59;99616.56;;;5.51;100.00
30081;BME280;16902;50.816;12.828;2023-02-14T09:15:01;99612.16;;;5.78;100.00
30081;BME280;16902;50.816;12.828;2023-02-14T09:20:04;99612.38;;;6.01;100.00
30081;BME280;16902;50.816;12.828;2023-02-14T09:25:07;99602.34;;;5.96;100.00
30081;BME280;16902;50.816;12.828;2023-02-14T09:30:10;99609.38;;;6.20;100.00
30081;BME280;16902;50.816;12.828;2023-02-14T09:35:12;99610.78;;;6.24;100.00
30081;BME280;16902;50.816;12.828;2023-02-14T09:40:16;99600.44;;;6.24;100.00
30081;BME280;16902;50.816;12.828;2023-02-14T09:45:27;99601.91;;;6.52;100.00
30081;BME280;16902;50.816;12.828;2023-02-14T09:50:40;99597.81;;;6.73;100.00
30081;BME280;16902;50.816;12.828;2023-02-14T10:01:24;99608.66;;;7.02;100.00
30081;BME280;16902;50.816;12.828;2023-02-14T10:11:33;99600.09;;;7.48;100.00
30081;BME280;16902;50.816;12.828;2023-02-14T10:16:36;99612.75;;;7.75;100.00
30081;BME280;16902;50.816;12.828;2023-02-14T10:21:49;99611.34;;;8.05;100.00
30081;BME280;16902;50.816;12.828;2023-02-14T10:26:59;99609.81;;;8.24;100.00
30081;BME280;16902;50.816;12.828;2023-02-14T10:32:03;99612.50;;;8.45;100.00
30081;BME280;16902;50.816;12.828;2023-02-14T10:43:29;99603.91;;;8.88;100.00
30081;BME280;16902;50.816;12.828;2023-02-14T10:58:45;99599.31;;;9.96;100.00
30081;BME280;16902;50.816;12.828;2023-02-14T11:03:55;99589.75;;;10.37;100.00
30081;BME280;16902;50.816;12.828;2023-02-14T11:09:04;99581.72;;;10.69;100.00
30081;BME280;16902;50.816;12.828;2023-02-14T11:14:32;99591.00;;;13.58;100.00
30081;BME280;16902;50.816;12.828;2023-02-14T11:19:34;99584.22;;;16.76;100.00
30081;BME280;16902;50.816;12.828;2023-02-14T11:24:38;99577.16;;;16.45;100.00
30081;BME280;16902;50.816;12.828;2023-02-14T11:29:47;99582.03;;;17.92;100.00
30081;BME280;16902;50.816;12.828;2023-02-14T11:35:03;99564.03;;;18.26;100.00
30081;BME280;16902;50.816;12.828;2023-02-14T11:40:09;99561.69;;;18.52;100.00
30081;BME280;16902;50.816;12.828;2023-02-14T11:45:33;99556.50;;;17.93;100.00
30081;BME280;16902;50.816;12.828;2023-02-14T11:50:37;99540.94;;;16.55;100.00
30081;BME280;16902;50.816;12.828;2023-02-14T11:55:39;99541.06;;;18.05;100.00
30081;BME280;16902;50.816;12.828;2023-02-14T12:00:50;99536.72;;;19.68;100.00
30081;BME280;16902;50.816;12.828;2023-02-14T12:05:54;99524.00;;;19.92;100.00
30081;BME280;16902;50.816;12.828;2023-02-14T12:11:17;99517.34;;;20.77;100.00
30081;BME280;16902;50.816;12.828;2023-02-14T12:16:33;99515.69;;;19.95;100.00
30081;BME280;16902;50.816;12.828;2023-02-14T12:22:27;99510.22;;;20.77;100.00
30081;BME280;16902;50.816;12.828;2023-02-14T12:27:44;99508.59;;;20.83;100.00
30081;BME280;16902;50.816;12.828;2023-02-14T12:32:52;99499.28;;;17.87;100.00
30081;BME280;16902;50.816;12.828;2023-02-14T12:43:41;99501.97;;;19.71;93.32
30081;BME280;16902;50.816;12.828;2023-02-14T12:54:40;99478.72;;;20.08;87.28
30081;BME280;16902;50.816;12.828;2023-02-14T13:10:26;99472.06;;;21.51;76.46
30081;BME280;16902;50.816;12.828;2023-02-14T13:20:57;99466.50;;;25.87;48.97
30081;BME280;16902;50.816;12.828;2023-02-14T13:26:18;99464.38;;;25.25;50.17
30081;BME280;16902;50.816;12.828;2023-02-14T13:31:21;99448.47;;;21.37;59.41
30081;BME280;16902;50.816;12.828;2023-02-14T13:36:25;99448.94;;;23.97;52.25
30081;BME280;16902;50.816;12.828;2023-02-14T13:41:28;99441.31;;;22.90;53.12
30081;BME280;16902;50.816;12.828;2023-02-14T13:51:48;99435.25;;;19.28;67.41
30081;BME280;16902;50.816;12.828;2023-02-14T13:56:50;99433.38;;;20.11;63.78
30081;BME280;16902;50.816;12.828;2023-02-14T14:01:52;99420.59;;;15.88;94.08
30081;BME280;16902;50.816;12.828;2023-02-14T14:12:07;99410.91;;;11.14;100.00
30081;BME280;16902;50.816;12.828;2023-02-14T14:17:25;99417.31;;;10.04;100.00
30081;BME280;16902;50.816;12.828;2023-02-14T14:22:27;99417.03;;;9.98;100.00
30081;BME280;16902;50.816;12.828;2023-02-14T14:27:34;99407.38;;;9.60;100.00
30081;BME280;16902;50.816;12.828;2023-02-14T14:32:41;99407.94;;;9.33;100.00
30081;BME280;16902;50.816;12.828;2023-02-14T14:37:55;99402.25;;;9.08;100.00
30081;BME280;16902;50.816;12.828;2023-02-14T14:43:55;99406.38;;;9.11;100.00
30081;BME280;16902;50.816;12.828;2023-02-14T14:48:40;99399.16;;;8.93;100.00
30081;BME280;16902;50.816;12.828;2023-02-14T14:53:47;99397.44;;;9.04;100.00
30081;BME280;16902;50.816;12.828;2023-02-14T14:58:51;99388.81;;;9.03;100.00
30081;BME280;16902;50.816;12.828;2023-02-14T15:03:54;99384.25;;;8.86;100.00
30081;BME280;16902;50.816;12.828;2023-02-14T15:08:56;99392.28;;;8.83;100.00
30081;BME280;16902;50.816;12.828;2023-02-14T15:13:58;99385.25;;;8.53;100.00
30081;BME280;16902;50.816;12.828;2023-02-14T15:19:06;99379.84;;;8.23;100.00
30081;BME280;16902;50.816;12.828;2023-02-14T15:24:12;99382.44;;;8.23;100.00
30081;BME280;16902;50.816;12.828;2023-02-14T15:34:24;99369.16;;;7.73;100.00
30081;BME280;16902;50.816;12.828;2023-02-14T15:39:47;99371.53;;;7.54;100.00
30081;BME280;16902;50.816;12.828;2023-02-14T15:45:19;99370.66;;;7.33;100.00
30081;BME280;16902;50.816;12.828;2023-02-14T15:50:28;99363.94;;;7.08;100.00
30081;BME280;16902;50.816;12.828;2023-02-14T15:55:32;99364.63;;;6.76;100.00
30081;BME280;16902;50.816;12.828;2023-02-14T16:00:35;99365.38;;;6.43;100.00
30081;BME280;16902;50.816;12.828;2023-02-14T16:05:37;99359.56;;;6.17;100.00
30081;BME280;16902;50.816;12.828;2023-02-14T16:10:38;99360.50;;;5.92;100.00
30081;BME280;16902;50.816;12.828;2023-02-14T16:21:16;99358.75;;;5.92;100.00
30081;BME280;16902;50.816;12.828;2023-02-14T16:26:19;99364.97;;;5.53;100.00
30081;BME280;16902;50.816;12.828;2023-02-14T16:31:20;99350.19;;;5.19;100.00
30081;BME280;16902;50.816;12.828;2023-02-14T16:36:25;99349.09;;;4.84;100.00
30081;BME280;16902;50.816;12.828;2023-02-14T16:41:29;99362.06;;;4.45;100.00
30081;BME280;16902;50.816;12.828;2023-02-14T16:46:34;99355.53;;;4.13;100.00
30081;BME280;16902;50.816;12.828;2023-02-14T16:51:36;99358.50;;;3.80;100.00
30081;BME280;16902;50.816;12.828;2023-02-14T17:01:43;99356.88;;;3.79;100.00
30081;BME280;16902;50.816;12.828;2023-02-14T17:06:49;99365.63;;;3.35;100.00
30081;BME280;16902;50.816;12.828;2023-02-14T17:11:55;99370.63;;;3.10;100.00
30081;BME280;16902;50.816;12.828;2023-02-14T17:16:59;99359.59;;;2.79;100.00
30081;BME280;16902;50.816;12.828;2023-02-14T17:22:01;99369.66;;;2.54;100.00
30081;BME280;16902;50.816;12.828;2023-02-14T17:27:05;99367.78;;;2.42;100.00
30081;BME280;16902;50.816;12.828;2023-02-14T17:32:12;99378.47;;;2.20;100.00
30081;BME280;16902;50.816;12.828;2023-02-14T17:37:14;99367.94;;;2.24;100.00
30081;BME280;16902;50.816;12.828;2023-02-14T17:42:16;99366.97;;;2.11;100.00
30081;BME280;16902;50.816;12.828;2023-02-14T17:47:18;99365.44;;;1.93;100.00
30081;BME280;16902;50.816;12.828;2023-02-14T17:52:20;99362.75;;;1.80;100.00
30081;BME280;16902;50.816;12.828;2023-02-14T17:57:27;99349.59;;;1.70;100.00
30081;BME280;16902;50.816;12.828;2023-02-14T18:02:29;99342.19;;;1.64;100.00
30081;BME280;16902;50.816;12.828;2023-02-14T18:07:30;99341.53;;;1.45;100.00
30081;BME280;16902;50.816;12.828;2023-02-14T18:12:32;99346.44;;;1.18;100.00
30081;BME280;16902;50.816;12.828;2023-02-14T18:17:34;99341.66;;;1.12;100.00
30081;BME280;16902;50.816;12.828;2023-02-14T18:22:36;99338.88;;;0.99;100.00
30081;BME280;16902;50.816;12.828;2023-02-14T18:27:38;99331.56;;;0.75;100.00
30081;BME280;16902;50.816;12.828;2023-02-14T18:32:40;99335.06;;;0.57;100.00
30081;BME280;16902;50.816;12.828;2023-02-14T18:37:42;99329.06;;;0.41;100.00
30081;BME280;16902;50.816;12.828;2023-02-14T18:42:44;99337.88;;;0.35;100.00
30081;BME280;16902;50.816;12.828;2023-02-14T18:47:46;99318.31;;;0.17;100.00
30081;BME280;16902;50.816;12.828;2023-02-14T18:52:48;99319.03;;;0.19;100.00
30081;BME280;16902;50.816;12.828;2023-02-14T18:57:50;99312.91;;;0.06;100.00
30081;BME280;16902;50.816;12.828;2023-02-14T19:02:51;99299.63;;;-0.03;100.00
30081;BME280;16902;50.816;12.828;2023-02-14T19:07:54;99303.63;;;-0.14;100.00
30081;BME280;16902;50.816;12.828;2023-02-14T19:12:58;99306.41;;;-0.19;100.00
30081;BME280;16902;50.816;12.828;2023-02-14T19:18:00;99297.22;;;-0.23;100.00
30081;BME280;16902;50.816;12.828;2023-02-14T19:23:02;99286.03;;;-0.39;100.00
30081;BME280;16902;50.816;12.828;2023-02-14T19:28:04;99288.59;;;-0.39;100.00
30081;BME280;16902;50.816;12.828;2023-02-14T19:33:10;99291.72;;;-0.33;100.00
30081;BME280;16902;50.816;12.828;2023-02-14T19:38:12;99280.31;;;-0.44;100.00
30081;BME280;16902;50.816;12.828;2023-02-14T19:43:14;99286.53;;;-0.67;100.00
30081;BME280;16902;50.816;12.828;2023-02-14T19:48:16;99276.78;;;-0.78;100.00
30081;BME280;16902;50.816;12.828;2023-02-14T19:53:18;99269.50;;;-0.86;100.00
30081;BME280;16902;50.816;12.828;2023-02-14T19:58:20;99270.38;;;-0.87;100.00
30081;BME280;16902;50.816;12.828;2023-02-14T20:03:22;99275.34;;;-1.02;100.00
30081;BME280;16902;50.816;12.828;2023-02-14T20:08:24;99274.31;;;-1.17;100.00
30081;BME280;16902;50.816;12.828;2023-02-14T20:13:26;99271.75;;;-1.17;100.00
30081;BME280;16902;50.816;12.828;2023-02-14T20:18:27;99270.31;;;-1.23;100.00
30081;BME280;16902;50.816;12.828;2023-02-14T20:23:31;99267.06;;;-1.26;100.00
30081;BME280;16902;50.816;12.828;2023-02-14T20:28:33;99261.41;;;-1.14;100.00
30081;BME280;16902;50.816;12.828;2023-02-14T20:33:35;99261.31;;;-1.32;100.00
30081;BME280;16902;50.816;12.828;2023-02-14T20:38:37;99243.94;;;-1.42;100.00
30081;BME280;16902;50.816;12.828;2023-02-14T20:43:39;99245.34;;;-1.56;100.00
30081;BME280;16902;50.816;12.828;2023-02-14T20:48:41;99242.59;;;-1.51;100.00
30081;BME280;16902;50.816;12.828;2023-02-14T20:53:44;99237.97;;;-1.62;100.00
30081;BME280;16902;50.816;12.828;2023-02-14T20:58:46;99232.16;;;-1.65;100.00
30081;BME280;16902;50.816;12.828;2023-02-14T21:03:50;99234.03;;;-1.69;100.00
30081;BME280;16902;50.816;12.828;2023-02-14T21:08:52;99233.19;;;-1.69;100.00
30081;BME280;16902;50.816;12.828;2023-02-14T21:13:56;99230.50;;;-1.66;100.00
30081;BME280;16902;50.816;12.828;2023-02-14T21:19:00;99217.94;;;-1.71;100.00
30081;BME280;16902;50.816;12.828;2023-02-14T21:24:10;99218.94;;;-1.73;100.00
30081;BME280;16902;50.816;12.828;2023-02-14T21:29:12;99205.59;;;-1.61;100.00
30081;BME280;16902;50.816;12.828;2023-02-14T21:34:15;99204.44;;;-1.73;100.00
30081;BME280;16902;50.816;12.828;2023-02-14T21:39:17;99202.97;;;-1.78;100.00
30081;BME280;16902;50.816;12.828;2023-02-14T21:44:21;99197.28;;;-1.85;100.00
30081;BME280;16902;50.816;12.828;2023-02-14T21:49:42;99206.13;;;-1.92;100.00
30081;BME280;16902;50.816;12.828;2023-02-14T21:55:02;99201.50;;;-2.03;100.00
30081;BME280;16902;50.816;12.828;2023-02-14T22:00:05;99199.06;;;-2.06;100.00
30081;BME280;16902;50.816;12.828;2023-02-14T22:05:11;99196.63;;;-2.09;100.00
30081;BME280;16902;50.816;12.828;2023-02-14T22:10:12;99197.44;;;-2.09;100.00
30081;BME280;16902;50.816;12.828;2023-02-14T22:15:14;99195.59;;;-2.05;100.00
30081;BME280;16902;50.816;12.828;2023-02-14T22:20:16;99196.50;;;-2.06;100.00
30081;BME280;16902;50.816;12.828;2023-02-14T22:25:18;99186.56;;;-2.12;100.00
30081;BME280;16902;50.816;12.828;2023-02-14T22:30:20;99184.88;;;-2.13;100.00
30081;BME280;16902;50.816;12.828;2023-02-14T22:35:22;99177.19;;;-2.12;100.00
30081;BME280;16902;50.816;12.828;2023-02-14T22:40:23;99169.72;;;-2.16;100.00
30081;BME280;16902;50.816;12.828;2023-02-14T22:45:25;99163.41;;;-2.28;100.00
30081;BME280;16902;50.816;12.828;2023-02-14T22:50:27;99172.84;;;-2.30;100.00
30081;BME280;16902;50.816;12.828;2023-02-14T22:55:30;99168.22;;;-2.41;100.00
30081;BME280;16902;50.816;12.828;2023-02-14T23:00:32;99169.78;;;-2.38;100.00
30081;BME280;16902;50.816;12.828;2023-02-14T23:05:34;99175.72;;;-2.38;100.00
30081;BME280;16902;50.816;12.828;2023-02-14T23:10:35;99167.75;;;-2.50;100.00
30081;BME280;16902;50.816;12.828;2023-02-14T23:15:37;99161.69;;;-2.48;100.00
30081;BME280;16902;50.816;12.828;2023-02-14T23:20:58;99165.22;;;-2.50;100.00
30081;BME280;16902;50.816;12.828;2023-02-14T23:26:18;99167.22;;;-2.59;100.00
30081;BME280;16902;50.816;12.828;2023-02-14T23:31:20;99164.03;;;-2.64;100.00
30081;BME280;16902;50.816;12.828;2023-02-14T23:36:23;99154.97;;;-2.71;100.00
30081;BME280;16902;50.816;12.828;2023-02-14T23:41:25;99164.34;;;-2.71;100.00
30081;BME280;16902;50.816;12.828;2023-02-14T23:46:51;99161.03;;;-2.73;100.00
30081;BME280;16902;50.816;12.828;2023-02-14T23:51:54;99164.53;;;-2.76;100.00
30081;BME280;16902;50.816;12.828;2023-02-14T23:56:56;99159.38;;;-2.74;100.00
